Time;durP1;ratioP1;P1;durP2;ratioP2;P2;SDS_P1;SDS_P2;PMS_P1;PMS_P2;Temp;Humidity;BMP_temperature;BMP_pressure;BME280_temperature;BME280_humidity;BME280_pressure;Samples;Min_cycle;Max_cycle;Signal;HPM_P1;HPM_P2
2023/10/17 00:01:32;;;;;;;10.90;6.60;;;;;;;5.59;75.27;100787.13;5010210;28;20670;-65
2023/10/17 00:04:11;;;;;;;10.03;6.20;;;;;;;5.58;75.40;100786.28;5011178;28;20215;-63
2023/10/17 00:06:40;;;;;;;12.87;6.17;;;;;;;5.58;75.02;100781.16;5007228;28;20257;-62
2023/10/17 00:09:08;;;;;;;11.43;6.57;;;;;;;5.52;75.67;100775.06;5009514;28;20219;-61
2023/10/17 00:11:51;;;;;;;12.00;5.93;;;;;;;5.51;75.30;100779.31;5006238;28;20294;-62
2023/10/17 00:14:18;;;;;;;12.53;6.20;;;;;;;5.52;75.90;100785.28;5005273;28;20231;-63
2023/10/17 00:16:47;;;;;;;11.43;5.67;;;;;;;5.49;75.46;100785.25;5009300;28;20233;-63
2023/10/17 00:19:18;;;;;;;14.93;6.37;;;;;;;5.50;75.69;100789.53;5011199;28;20208;-63
2023/10/17 00:21:49;;;;;;;9.47;6.07;;;;;;;5.48;75.73;100783.50;5010065;28;20211;-66
2023/10/17 00:24:19;;;;;;;14.13;6.53;;;;;;;5.46;76.14;100792.84;5010319;28;20253;-67
2023/10/17 00:26:48;;;;;;;10.80;6.00;;;;;;;5.45;75.47;100786.00;5006404;28;20214;-65
2023/10/17 00:29:16;;;;;;;11.77;6.17;;;;;;;5.40;75.73;100785.03;5010865;28;20705;-69
2023/10/17 00:31:46;;;;;;;10.93;5.97;;;;;;;5.44;75.79;100789.38;5005927;28;20250;-67
2023/10/17 00:34:15;;;;;;;10.03;5.97;;;;;;;5.45;76.03;100788.53;5002105;28;20566;-66
2023/10/17 00:36:51;;;;;;;11.60;6.07;;;;;;;5.43;75.68;100785.09;5006550;28;20203;-66
2023/10/17 00:39:29;;;;;;;8.90;6.50;;;;;;;5.39;75.95;100799.50;5004126;28;20203;-66
2023/10/17 00:44:55;;;;;;;11.80;5.70;;;;;;;5.37;76.07;100807.97;5011244;28;20298;-70
2023/10/17 00:47:25;;;;;;;9.67;6.03;;;;;;;5.32;76.28;100800.22;5010899;28;20621;-65
2023/10/17 00:49:54;;;;;;;11.27;6.10;;;;;;;5.28;76.66;100801.84;5001247;28;20221;-69
2023/10/17 00:52:28;;;;;;;12.57;6.67;;;;;;;5.29;76.60;100806.09;5007380;28;20702;-66
2023/10/17 00:54:59;;;;;;;11.53;5.93;;;;;;;5.27;76.42;100804.38;5020735;28;20669;-67
2023/10/17 00:57:27;;;;;;;11.90;6.10;;;;;;;5.25;76.54;100809.44;5018322;28;20746;-66
2023/10/17 00:59:56;;;;;;;11.83;6.53;;;;;;;5.25;76.43;100811.13;5007061;28;20662;-65
2023/10/17 01:02:29;;;;;;;9.80;5.27;;;;;;;5.24;76.79;100807.72;5012704;28;20203;-66
2023/10/17 01:04:59;;;;;;;7.47;5.77;;;;;;;5.19;76.78;100806.75;5007997;28;20654;-66
2023/10/17 01:07:30;;;;;;;10.87;5.90;;;;;;;5.19;77.15;100803.31;5010667;28;20243;-66
2023/10/17 01:10:09;;;;;;;9.37;5.90;;;;;;;5.23;76.55;100805.13;5011085;28;20227;-66
2023/10/17 01:12:50;;;;;;;13.93;5.40;;;;;;;5.23;76.56;100803.44;5009019;28;20231;-65
2023/10/17 01:15:21;;;;;;;11.50;6.10;;;;;;;5.24;76.60;100810.25;5009998;28;20215;-66
2023/10/17 01:17:53;;;;;;;9.20;5.77;;;;;;;5.25;76.87;100811.13;5016089;28;20299;-65
2023/10/17 01:20:24;;;;;;;10.87;6.40;;;;;;;5.24;76.23;100819.63;5005719;28;20642;-65
2023/10/17 01:22:56;;;;;;;9.30;6.30;;;;;;;5.21;76.37;100805.09;5012485;28;20251;-66
2023/10/17 01:25:29;;;;;;;12.63;6.30;;;;;;;5.18;76.99;100809.25;5012396;28;20665;-66
2023/10/17 01:27:58;;;;;;;11.13;5.97;;;;;;;5.17;76.79;100800.72;5010847;28;20210;-67
2023/10/17 01:30:29;;;;;;;9.33;6.00;;;;;;;5.18;76.76;100814.38;5012928;28;20740;-67
2023/10/17 01:32:58;;;;;;;7.97;5.73;;;;;;;5.18;77.02;100810.13;5014603;28;20658;-66
2023/10/17 01:35:27;;;;;;;11.83;6.47;;;;;;;5.18;77.18;100811.81;5014151;28;20633;-66
2023/10/17 01:37:56;;;;;;;10.20;6.47;;;;;;;5.17;76.88;100807.53;5003697;28;20212;-66
2023/10/17 01:40:27;;;;;;;10.73;5.90;;;;;;;5.18;76.82;100810.13;5012407;28;20223;-66
2023/10/17 01:42:57;;;;;;;8.13;5.93;;;;;;;5.15;76.82;100811.75;5015017;28;20309;-67
2023/10/17 01:45:29;;;;;;;9.97;5.97;;;;;;;5.11;77.16;100813.34;5012725;28;20290;-67
2023/10/17 01:47:58;;;;;;;10.97;6.67;;;;;;;5.09;76.72;100822.69;5013579;28;20207;-67
2023/10/17 01:50:27;;;;;;;8.93;6.57;;;;;;;5.04;76.91;100821.69;5018470;28;20208;-65
2023/10/17 01:52:59;;;;;;;12.40;6.43;;;;;;;5.07;77.04;100819.22;5013636;28;20635;-67
2023/10/17 01:55:30;;;;;;;11.53;6.63;;;;;;;5.08;77.33;100823.50;5025321;28;20293;-66
2023/10/17 01:57:58;;;;;;;15.43;7.20;;;;;;;5.08;77.59;100811.63;5011400;28;20239;-65
2023/10/17 02:00:37;;;;;;;10.90;6.17;;;;;;;5.04;77.17;100814.94;5012515;28;20219;-65
2023/10/17 02:03:06;;;;;;;9.20;5.93;;;;;;;5.02;77.27;100811.47;5011885;28;20203;-64
2023/10/17 02:05:35;;;;;;;9.03;6.17;;;;;;;5.04;77.23;100821.69;5020702;28;20211;-67
2023/10/17 02:08:05;;;;;;;12.40;6.40;;;;;;;5.00;77.40;100814.81;5011010;28;20286;-66
2023/10/17 02:10:36;;;;;;;13.50;6.50;;;;;;;4.97;77.49;100822.38;5019051;28;20739;-64
2023/10/17 02:13:06;;;;;;;9.87;6.60;;;;;;;4.92;77.58;100822.28;5011933;28;20215;-66
2023/10/17 02:15:34;;;;;;;9.40;6.30;;;;;;;4.95;77.57;100826.59;5006494;28;20285;-65
2023/10/17 02:18:11;;;;;;;13.07;6.60;;;;;;;4.96;77.61;100820.66;5009473;28;20285;-65
2023/10/17 02:20:47;;;;;;;10.80;6.43;;;;;;;4.96;77.29;100820.66;5014089;28;20203;-64
2023/10/17 02:23:19;;;;;;;10.00;6.93;;;;;;;4.92;77.63;100821.44;5014261;28;20206;-64
2023/10/17 02:25:50;;;;;;;9.37;6.23;;;;;;;4.89;78.03;100814.53;5013097;28;20203;-64
2023/10/17 02:28:18;;;;;;;9.53;6.13;;;;;;;4.84;77.99;100819.56;5011108;28;20221;-64
2023/10/17 02:30:46;;;;;;;9.87;5.73;;;;;;;4.81;78.09;100822.03;5014965;28;20230;-65
2023/10/17 02:33:17;;;;;;;11.20;5.70;;;;;;;4.79;77.92;100821.16;5015872;28;20269;-66
2023/10/17 02:36:05;;;;;;;9.30;6.40;;;;;;;4.76;78.34;100826.16;5011998;28;20741;-66
2023/10/17 02:38:34;;;;;;;11.67;6.03;;;;;;;4.76;78.23;100826.16;5007893;28;20231;-66
2023/10/17 02:41:06;;;;;;;12.17;6.93;;;;;;;4.76;78.45;100827.84;5013314;28;20203;-78
2023/10/17 02:43:37;;;;;;;11.23;6.33;;;;;;;4.71;78.01;100827.72;5009884;28;20200;-75
2023/10/17 02:46:05;;;;;;;11.83;7.00;;;;;;;4.71;78.60;100827.72;5023081;28;20253;-74
2023/10/17 02:48:38;;;;;;;10.67;6.40;;;;;;;4.69;78.39;100834.50;5015855;28;20208;-71
2023/10/17 02:51:30;;;;;;;10.90;7.23;;;;;;;4.65;78.50;100827.59;5014589;28;20211;-74
2023/10/17 02:53:59;;;;;;;12.53;7.40;;;;;;;4.63;78.69;100831.78;5015053;28;20203;-69
2023/10/17 02:56:35;;;;;;;11.77;6.77;;;;;;;4.61;78.60;100828.34;5021616;28;20250;-71
2023/10/17 02:59:09;;;;;;;9.93;6.53;;;;;;;4.64;78.59;100830.97;5019970;28;20231;-71
2023/10/17 03:01:39;;;;;;;10.60;6.83;;;;;;;4.63;78.58;100830.94;5025263;28;20250;-75
2023/10/17 03:04:12;;;;;;;11.90;6.57;;;;;;;4.62;78.80;100832.63;5012685;28;20211;-76
2023/10/17 03:06:42;;;;;;;12.43;7.10;;;;;;;4.58;78.75;100841.88;5022127;28;20810;-75
2023/10/17 03:09:32;;;;;;;13.30;6.80;;;;;;;4.51;78.40;100836.59;5027374;28;20615;-73
2023/10/17 03:12:09;;;;;;;12.00;6.20;;;;;;;4.52;78.51;100835.75;5014517;28;20226;-75
2023/10/17 03:14:49;;;;;;;10.23;7.03;;;;;;;4.48;79.22;100836.50;5013421;28;20203;-74
2023/10/17 03:17:16;;;;;;;11.03;6.90;;;;;;;4.52;79.05;100844.28;5013717;28;20242;-74
2023/10/17 03:19:44;;;;;;;13.43;6.73;;;;;;;4.52;78.81;100845.97;5015866;28;20210;-73
2023/10/17 03:22:19;;;;;;;11.17;6.63;;;;;;;4.53;79.02;100842.59;5020114;28;20230;-72
2023/10/17 03:24:49;;;;;;;12.97;6.67;;;;;;;4.52;79.08;100856.16;5017919;28;20242;-75
2023/10/17 03:27:24;;;;;;;13.37;6.37;;;;;;;4.49;78.55;100844.22;5021950;28;20200;-77
2023/10/17 03:29:52;;;;;;;12.60;7.17;;;;;;;4.45;78.71;100851.72;5021418;28;20234;-76
2023/10/17 03:32:23;;;;;;;12.47;6.73;;;;;;;4.42;78.93;100854.19;5020878;28;20258;-75
2023/10/17 03:34:56;;;;;;;13.83;7.60;;;;;;;4.40;79.21;100850.75;5017494;28;20254;-73
2023/10/17 03:37:29;;;;;;;13.73;6.90;;;;;;;4.37;78.87;100854.06;5011785;28;20207;-75
2023/10/17 03:40:03;;;;;;;16.43;7.03;;;;;;;4.35;79.29;100856.59;5018297;28;20203;-75
2023/10/17 03:42:44;;;;;;;11.53;6.67;;;;;;;4.31;79.35;100849.69;5020928;28;20209;-71
2023/10/17 03:45:16;;;;;;;12.87;6.83;;;;;;;4.31;78.98;100857.34;5017387;28;20725;-74
2023/10/17 03:47:48;;;;;;;10.10;6.77;;;;;;;4.27;78.74;100850.44;5015948;28;20221;-72
2023/10/17 03:50:31;;;;;;;11.47;6.90;;;;;;;4.24;79.53;100855.44;5008277;28;20594;-66
2023/10/17 03:53:07;;;;;;;11.87;6.90;;;;;;;4.22;79.28;100840.91;5017252;28;20328;-66
2023/10/17 03:55:36;;;;;;;14.50;7.07;;;;;;;4.19;79.13;100841.69;5009104;28;20222;-67
2023/10/17 03:58:08;;;;;;;11.43;7.00;;;;;;;4.19;79.21;100851.88;5011343;28;20234;-66
2023/10/17 04:00:44;;;;;;;10.67;6.70;;;;;;;4.17;79.48;100851.00;5012535;28;20207;-65
2023/10/17 04:03:19;;;;;;;13.40;7.80;;;;;;;4.15;79.81;100855.19;5012395;28;20604;-77
2023/10/17 04:05:50;;;;;;;11.93;6.43;;;;;;;4.08;79.56;100853.28;5015601;28;20209;-75
2023/10/17 04:08:26;;;;;;;16.27;7.43;;;;;;;4.03;79.65;100854.84;5013549;28;20627;-64
2023/10/17 04:11:08;;;;;;;13.63;6.97;;;;;;;4.01;80.44;100856.47;5017204;28;20230;-65
2023/10/17 04:13:39;;;;;;;13.77;7.33;;;;;;;3.94;80.42;100852.03;5016712;28;20234;-67
2023/10/17 04:16:10;;;;;;;11.00;7.13;;;;;;;3.85;80.44;100856.06;5021053;28;20625;-77
2023/10/17 04:18:38;;;;;;;12.87;6.93;;;;;;;3.91;80.62;100869.81;5016026;28;20207;-65
2023/10/17 04:21:17;;;;;;;11.07;6.60;;;;;;;3.85;80.69;100865.41;5007241;28;20203;-64
2023/10/17 04:23:49;;;;;;;11.23;7.10;;;;;;;3.87;80.84;100866.31;5010044;28;20254;-67
2023/10/17 04:26:19;;;;;;;11.20;7.67;;;;;;;3.87;80.78;100869.72;5010992;28;20294;-64
2023/10/17 04:28:50;;;;;;;14.90;7.87;;;;;;;3.91;81.06;100859.63;5009362;28;20211;-65
2023/10/17 04:31:25;;;;;;;17.70;7.67;;;;;;;3.84;81.02;100869.63;5008527;28;20238;-65
2023/10/17 04:34:05;;;;;;;13.90;8.23;;;;;;;3.81;80.79;100869.53;5018816;28;20269;-67
2023/10/17 04:36:37;;;;;;;10.63;7.80;;;;;;;3.90;80.90;100879.13;5007589;28;20210;-66
2023/10/17 04:39:18;;;;;;;10.93;7.97;;;;;;;3.92;80.39;100876.63;5010222;28;20655;-65
2023/10/17 04:44:34;;;;;;;12.70;7.03;;;;;;;3.77;81.21;100880.47;5012864;28;20318;-65
2023/10/17 04:49:50;;;;;;;10.87;8.10;;;;;;;3.65;81.72;100876.72;5003061;28;20274;-68
2023/10/17 04:52:19;;;;;;;12.87;8.40;;;;;;;3.63;81.40;100884.28;5013657;28;20219;-67
2023/10/17 04:54:52;;;;;;;12.33;8.60;;;;;;;3.53;81.79;100877.19;5019428;28;20277;-69
2023/10/17 04:57:19;;;;;;;14.80;8.73;;;;;;;3.45;82.05;100883.72;5016741;28;20207;-67
2023/10/17 05:00:10;;;;;;;13.57;8.77;;;;;;;3.46;82.17;100891.44;5012554;28;20757;-66
2023/10/17 05:02:39;;;;;;;12.37;8.77;;;;;;;3.51;82.12;100894.97;5010876;28;20195;-64
2023/10/17 05:08:21;;;;;;;12.47;7.63;;;;;;;3.47;82.13;100890.59;5080513;28;20596;-64
2023/10/17 06:17:28;;;;;;;13.33;8.43;;;;;;;4.38;81.13;100951.88;5063458;28;20201;-66
2023/10/17 06:19:59;;;;;;;14.73;7.73;;;;;;;4.58;80.19;100954.19;5049424;28;20692;-65
2023/10/17 06:30:49;;;;;;;15.47;7.47;;;;;;;5.16;77.56;100959.09;5049608;28;20289;-66
2023/10/17 06:33:19;;;;;;;11.47;7.90;;;;;;;5.41;77.29;100963.09;5047543;28;20553;-64
2023/10/17 06:35:52;;;;;;;16.17;8.83;;;;;;;5.60;76.59;100962.72;5051675;28;20210;-64
2023/10/17 06:38:27;;;;;;;12.83;7.57;;;;;;;5.81;75.89;100963.19;5053284;28;20297;-65
2023/10/17 06:41:11;;;;;;;14.67;7.50;;;;;;;6.04;74.76;100956.09;5049669;28;20547;-66
2023/10/17 06:43:40;;;;;;;10.10;7.13;;;;;;;6.10;72.92;100962.16;5052507;28;20224;-64
2023/10/17 06:46:14;;;;;;;10.93;7.20;;;;;;;6.13;73.01;100957.97;5055928;28;20649;-63
2023/10/17 06:48:49;;;;;;;11.70;7.67;;;;;;;6.17;72.81;100961.44;5048867;28;20248;-62
2023/10/17 06:51:36;;;;;;;11.03;7.23;;;;;;;6.23;72.27;100970.13;5047552;28;20206;-65
2023/10/17 06:54:12;;;;;;;13.60;7.97;;;;;;;6.40;72.30;100969.59;5050177;28;20206;-62
2023/10/17 06:56:41;;;;;;;15.40;7.80;;;;;;;6.55;72.36;100969.88;5052198;28;20293;-65
2023/10/17 06:59:24;;;;;;;11.47;8.30;;;;;;;6.64;71.13;100967.53;5052426;28;20233;-65
2023/10/17 07:04:40;;;;;;;11.63;7.70;;;;;;;6.42;70.48;100973.91;5051218;28;20213;-64
2023/10/17 07:07:09;;;;;;;11.40;7.37;;;;;;;6.31;71.16;100974.53;5051246;28;20699;-62
2023/10/17 07:09:38;;;;;;;13.80;8.33;;;;;;;6.17;71.75;100975.09;5055625;28;20214;-63
2023/10/17 07:12:13;;;;;;;15.60;8.53;;;;;;;6.05;72.37;100962.91;5049243;28;20221;-64
2023/10/17 07:14:48;;;;;;;11.47;8.10;;;;;;;6.03;72.65;100969.69;5051840;28;20558;-63
2023/10/17 07:17:28;;;;;;;12.33;8.37;;;;;;;6.01;72.78;100976.47;5050656;28;20661;-63
2023/10/17 07:19:59;;;;;;;10.13;7.53;;;;;;;5.92;73.40;100977.91;5047905;28;20206;-64
2023/10/17 07:22:35;;;;;;;14.10;8.30;;;;;;;5.74;74.20;100976.69;5056353;28;20209;-70
2023/10/17 07:25:14;;;;;;;12.37;9.00;;;;;;;5.78;74.38;100978.50;5052687;28;20676;-68
2023/10/17 07:27:44;;;;;;;15.03;8.10;;;;;;;5.81;74.42;100975.97;5048697;28;20328;-70
2023/10/17 07:30:13;;;;;;;13.57;8.70;;;;;;;5.71;74.63;100971.50;5044327;28;20581;-68
2023/10/17 07:32:46;;;;;;;11.57;7.63;;;;;;;5.86;75.07;100981.22;5052319;28;20210;-69
2023/10/17 07:35:23;;;;;;;13.37;8.37;;;;;;;6.03;75.20;100968.81;5048469;28;20209;-69
2023/10/17 07:37:56;;;;;;;14.83;8.60;;;;;;;6.69;72.99;100970.16;5040852;28;20203;-66
2023/10/17 07:40:42;;;;;;;12.37;7.90;;;;;;;7.71;72.41;100971.91;5049471;28;20693;-67
2023/10/17 07:43:10;;;;;;;14.93;7.97;;;;;;;8.97;65.84;100973.50;5046832;28;20221;-66
2023/10/17 07:45:39;;;;;;;11.30;7.13;;;;;;;10.10;62.26;100964.06;5048883;28;20244;-65
2023/10/17 07:50:57;;;;;;;10.23;6.93;;;;;;;11.97;56.56;100966.97;5047282;28;20641;-64
2023/10/17 07:53:32;;;;;;;11.97;7.30;;;;;;;11.54;54.19;100959.25;5047265;28;20206;-62
2023/10/17 07:56:05;;;;;;;13.00;7.07;;;;;;;10.69;55.56;100972.06;5049379;28;20547;-63
2023/10/17 07:58:43;;;;;;;9.43;6.80;;;;;;;9.77;57.92;100971.59;5050064;28;20201;-65
2023/10/17 08:01:16;;;;;;;13.20;7.50;;;;;;;8.96;60.44;100971.78;5048074;28;20205;-64
2023/10/17 08:03:54;;;;;;;10.03;6.70;;;;;;;8.44;62.62;100981.50;5048846;28;20351;-63
2023/10/17 08:06:29;;;;;;;11.00;6.67;;;;;;;7.97;64.69;100979.13;5045598;28;20198;-63
2023/10/17 08:08:59;;;;;;;11.27;6.67;;;;;;;7.73;66.15;100977.94;5053976;28;20214;-62
2023/10/17 08:11:30;;;;;;;13.40;7.37;;;;;;;7.61;67.20;100989.72;5049707;28;20202;-61
2023/10/17 08:14:01;;;;;;;10.40;6.67;;;;;;;7.51;67.48;100978.44;5046957;28;20296;-63
2023/10/17 08:16:32;;;;;;;10.87;6.50;;;;;;;7.43;67.97;100986.00;5052749;28;20244;-62
2023/10/17 08:19:14;;;;;;;11.30;6.67;;;;;;;7.37;68.25;100985.91;5050996;28;20650;-63
2023/10/17 08:22:10;;;;;;;9.23;6.80;;;;;;;7.30;69.34;100983.22;5048566;28;20209;-62
2023/10/17 08:24:40;;;;;;;12.37;7.47;;;;;;;7.25;69.43;100986.59;5051337;28;20649;-64
2023/10/17 08:27:17;;;;;;;13.30;6.70;;;;;;;7.26;69.99;100983.19;5050740;28;20574;-62
2023/10/17 08:29:48;;;;;;;10.50;7.27;;;;;;;7.32;70.31;100987.53;5049973;28;20574;-71
2023/10/17 08:35:08;;;;;;;11.60;7.17;;;;;;;7.33;69.76;100998.63;5048167;28;20213;-68
2023/10/17 08:37:43;;;;;;;10.40;6.70;;;;;;;7.33;70.10;100996.06;5049506;28;20212;-63
2023/10/17 08:40:39;;;;;;;9.80;6.30;;;;;;;7.33;70.34;100996.06;5050310;28;20209;-66
2023/10/17 08:43:14;;;;;;;10.37;6.63;;;;;;;7.33;69.96;100989.28;5049243;28;20216;-62
2023/10/17 08:45:46;;;;;;;8.90;5.90;;;;;;;7.37;70.37;100991.03;5038840;28;20213;-63
2023/10/17 08:48:15;;;;;;;9.97;6.60;;;;;;;7.42;69.95;100986.00;5048424;28;20221;-63
2023/10/17 08:50:45;;;;;;;11.07;7.40;;;;;;;7.58;70.42;100989.66;5047445;28;20244;-64
2023/10/17 08:53:20;;;;;;;9.87;5.53;;;;;;;7.62;68.82;100992.31;5045159;28;20209;-62
2023/10/17 08:55:49;;;;;;;7.60;5.30;;;;;;;7.60;68.42;100999.09;5050086;28;20629;-63
2023/10/17 08:58:24;;;;;;;10.13;6.07;;;;;;;7.59;68.69;100992.25;5051259;28;20228;-63
2023/10/17 09:00:56;;;;;;;10.60;6.03;;;;;;;7.56;68.26;100991.34;5045967;28;20212;-72
2023/10/17 09:03:28;;;;;;;11.17;6.03;;;;;;;7.50;68.81;100992.94;5049787;28;20649;-61
2023/10/17 09:06:06;;;;;;;11.37;5.87;;;;;;;7.50;69.15;100990.38;5047323;28;20289;-62
2023/10/17 09:08:50;;;;;;;10.17;6.17;;;;;;;7.54;69.25;100999.00;5050090;28;20712;-63
2023/10/17 09:11:29;;;;;;;9.03;5.87;;;;;;;7.54;69.56;100987.88;5050258;28;20201;-64
2023/10/17 09:14:16;;;;;;;8.73;5.30;;;;;;;7.58;68.75;100993.06;5042177;28;20216;-63
2023/10/17 09:16:50;;;;;;;10.83;5.50;;;;;;;7.66;69.31;100986.38;5046137;28;20202;-68
2023/10/17 09:19:25;;;;;;;8.37;5.57;;;;;;;7.73;69.18;100989.88;5049145;28;20704;-62
2023/10/17 09:21:59;;;;;;;10.90;6.47;;;;;;;7.81;68.94;100988.31;5049242;28;20209;-62
2023/10/17 09:24:35;;;;;;;11.50;5.80;;;;;;;7.88;68.42;100994.38;5052299;28;20205;-62
2023/10/17 09:27:09;;;;;;;8.40;5.30;;;;;;;7.89;68.47;100986.72;5045783;28;20625;-65
2023/10/17 09:29:45;;;;;;;9.90;4.77;;;;;;;7.91;67.47;100997.84;5043577;28;20625;-65
2023/10/17 09:32:32;;;;;;;7.80;5.47;;;;;;;7.95;67.97;100988.50;5048401;28;20217;-69
2023/10/17 09:35:06;;;;;;;8.30;5.13;;;;;;;8.01;67.28;100987.75;5050975;28;20205;-64
2023/10/17 09:37:37;;;;;;;8.23;4.50;;;;;;;8.02;66.53;100987.75;5045818;28;20206;-63
2023/10/17 09:40:12;;;;;;;8.63;4.80;;;;;;;8.07;66.89;100985.25;5047153;28;20198;-63
2023/10/17 09:42:44;;;;;;;8.23;5.00;;;;;;;8.14;67.47;100993.06;5050838;28;20207;-62
2023/10/17 09:45:15;;;;;;;5.90;4.37;;;;;;;8.19;66.43;100991.41;5048343;28;20230;-64
2023/10/17 09:48:04;;;;;;;7.07;4.30;;;;;;;8.21;65.59;100986.28;5044376;28;20202;-66
2023/10/17 09:50:35;;;;;;;8.30;4.87;;;;;;;8.20;65.13;100987.13;5050755;28;20224;-66
2023/10/17 09:53:17;;;;;;;9.87;4.40;;;;;;;8.21;66.29;100989.75;5040309;28;20289;-67
2023/10/17 09:55:48;;;;;;;7.53;3.73;;;;;;;8.29;65.29;100986.41;5053366;28;20209;-67
2023/10/17 09:58:22;;;;;;;6.97;3.83;;;;;;;8.35;65.49;100991.59;5049862;28;20577;-69
2023/10/17 10:00:54;;;;;;;6.57;4.10;;;;;;;8.34;65.21;100989.88;5045350;28;20210;-67
2023/10/17 10:03:24;;;;;;;4.70;3.50;;;;;;;8.39;65.09;100985.69;5050321;28;20202;-69
2023/10/17 10:05:54;;;;;;;6.13;3.60;;;;;;;8.42;64.46;100978.91;5043478;28;20218;-65
2023/10/17 10:08:33;;;;;;;6.00;3.50;;;;;;;8.43;64.17;100979.75;5044210;28;20249;-67
2023/10/17 10:11:05;;;;;;;8.07;4.17;;;;;;;8.46;63.85;100972.94;5042761;28;20297;-62
2023/10/17 10:14:02;;;;;;;6.23;3.90;;;;;;;8.55;64.14;100969.66;5046260;28;20577;-64
2023/10/17 10:16:50;;;;;;;7.13;4.37;;;;;;;8.62;64.43;100958.59;5050382;28;20225;-63
2023/10/17 10:19:23;;;;;;;9.53;4.30;;;;;;;8.71;63.97;100957.81;5048464;28;20281;-62
2023/10/17 10:21:57;;;;;;;7.10;4.13;;;;;;;8.75;63.35;100963.84;5053121;28;20649;-64
2023/10/17 10:24:29;;;;;;;9.77;4.80;;;;;;;8.78;62.99;100957.03;5050419;28;20209;-63
2023/10/17 10:27:23;;;;;;;9.23;4.60;;;;;;;8.86;63.27;100959.69;5049812;28;20209;-64
2023/10/17 10:29:53;;;;;;;5.40;3.80;;;;;;;8.91;62.84;100955.44;5049699;28;20701;-63
2023/10/17 10:32:35;;;;;;;8.30;4.00;;;;;;;8.94;62.71;100946.06;5047349;28;20208;-63
2023/10/17 10:35:05;;;;;;;7.07;3.63;;;;;;;8.98;61.60;100959.81;5047921;28;20210;-69
2023/10/17 10:37:54;;;;;;;7.03;4.10;;;;;;;9.00;61.99;100950.41;5049678;28;20244;-69
2023/10/17 10:40:26;;;;;;;7.43;3.90;;;;;;;9.03;61.48;100942.72;5047562;28;20209;-66
2023/10/17 10:42:58;;;;;;;6.47;3.40;;;;;;;9.04;60.47;100941.88;5049958;28;20301;-63
2023/10/17 10:45:29;;;;;;;5.07;3.20;;;;;;;9.09;60.80;100937.63;5052231;28;20570;-64
2023/10/17 10:47:58;;;;;;;5.83;2.90;;;;;;;9.19;60.67;100931.72;5047816;28;20218;-61
2023/10/17 10:50:29;;;;;;;4.43;2.60;;;;;;;9.28;60.04;100932.63;5051992;28;20277;-61
2023/10/17 10:52:58;;;;;;;7.37;2.90;;;;;;;9.47;59.52;100931.09;5050260;28;20221;-60
2023/10/17 10:55:30;;;;;;;9.83;3.40;;;;;;;9.83;59.52;100927.88;5050559;28;20653;-61
2023/10/17 10:58:03;;;;;;;5.13;3.30;;;;;;;10.07;56.39;100917.69;5044338;28;20201;-63
2023/10/17 11:00:32;;;;;;;4.83;2.60;;;;;;;10.20;56.19;100922.91;5050356;28;20197;-61
2023/10/17 11:03:01;;;;;;;4.63;2.70;;;;;;;10.46;54.59;100923.06;5045886;28;20586;-61
2023/10/17 11:05:29;;;;;;;7.67;2.57;;;;;;;10.75;52.61;100912.78;5054807;28;20217;-62
2023/10/17 11:08:01;;;;;;;4.20;2.30;;;;;;;11.01;52.50;100915.38;5050282;28;20233;-60
2023/10/17 11:10:31;;;;;;;3.97;2.90;;;;;;;11.34;52.29;100911.94;5055060;28;20707;-62
2023/10/17 11:12:59;;;;;;;3.97;2.50;;;;;;;11.68;51.37;100911.94;5051109;28;20608;-60
2023/10/17 11:15:32;;;;;;;6.87;2.70;;;;;;;11.93;49.85;100915.31;5042522;28;20744;-62
2023/10/17 11:18:02;;;;;;;3.93;2.10;;;;;;;12.23;48.59;100904.03;5050150;28;20202;-62
2023/10/17 11:20:30;;;;;;;3.50;2.17;;;;;;;12.11;47.73;100909.22;5053839;28;20206;-61
2023/10/17 11:22:58;;;;;;;5.10;2.50;;;;;;;12.06;47.96;100899.78;5048831;28;20632;-64
2023/10/17 11:25:28;;;;;;;5.10;2.00;;;;;;;12.18;48.07;100900.59;5050332;28;20661;-61
2023/10/17 11:28:00;;;;;;;5.87;2.23;;;;;;;12.43;47.90;100893.56;5049785;28;20210;-62
2023/10/17 11:30:34;;;;;;;3.77;1.60;;;;;;;12.78;46.32;100894.22;5051816;28;20857;-63
2023/10/17 11:33:04;;;;;;;3.10;1.60;;;;;;;12.81;43.67;100898.50;5051452;28;20296;-65
2023/10/17 11:35:34;;;;;;;3.30;1.67;;;;;;;12.81;42.78;100889.03;5049361;28;20241;-60
2023/10/17 11:38:03;;;;;;;4.60;1.93;;;;;;;12.82;43.61;100887.31;5050713;28;20209;-63
2023/10/17 11:40:44;;;;;;;4.33;1.90;;;;;;;12.67;44.16;100890.00;5046531;28;20233;-61
2023/10/17 11:43:18;;;;;;;3.37;2.03;;;;;;;12.67;44.65;100884.81;5048130;28;20201;-67
2023/10/17 11:45:47;;;;;;;3.67;1.90;;;;;;;12.74;44.52;100883.88;5051108;28;20728;-66
2023/10/17 11:48:29;;;;;;;3.63;2.40;;;;;;;12.87;44.00;100888.09;5050079;28;20284;-67
2023/10/17 11:51:15;;;;;;;2.60;1.87;;;;;;;12.93;44.42;100884.63;5045771;28;20294;-66
2023/10/17 11:54:07;;;;;;;4.33;1.73;;;;;;;12.93;43.53;100877.72;5053687;28;20256;-69
2023/10/17 11:56:55;;;;;;;2.73;1.50;;;;;;;12.94;43.41;100869.09;5047717;28;20206;-67
2023/10/17 11:59:25;;;;;;;3.20;1.80;;;;;;;12.97;43.48;100869.06;5050546;28;20204;-68
2023/10/17 12:01:53;;;;;;;3.77;1.77;;;;;;;13.10;43.17;100874.13;5058851;28;20597;-64
2023/10/17 12:04:23;;;;;;;4.43;2.30;;;;;;;13.05;43.04;100863.81;5050012;28;20224;-62
2023/10/17 12:06:51;;;;;;;5.67;2.13;;;;;;;12.98;42.65;100867.34;5053137;28;20569;-66
2023/10/17 12:09:22;;;;;;;3.93;1.40;;;;;;;12.88;42.53;100869.13;5051291;28;20252;-67
2023/10/17 12:11:53;;;;;;;2.57;1.30;;;;;;;12.73;42.80;100869.25;5046461;28;20206;-68
2023/10/17 12:14:22;;;;;;;1.10;0.90;;;;;;;12.55;41.06;100865.91;5051197;28;20206;-63
2023/10/17 12:16:54;;;;;;;3.27;1.40;;;;;;;12.46;41.54;100863.41;5049090;28;20623;-61
2023/10/17 12:19:26;;;;;;;1.97;1.10;;;;;;;12.46;42.19;100858.22;5049011;28;20569;-61
2023/10/17 12:21:54;;;;;;;3.93;1.63;;;;;;;12.37;42.65;100860.88;5046725;28;20217;-68
2023/10/17 12:24:28;;;;;;;3.30;1.53;;;;;;;12.40;43.03;100854.81;5051637;28;20590;-62
2023/10/17 12:26:56;;;;;;;3.30;1.47;;;;;;;12.50;42.61;100852.16;5049776;28;20201;-63
2023/10/17 12:29:26;;;;;;;3.20;1.53;;;;;;;12.47;42.42;100849.59;5050507;28;20548;-62
2023/10/17 12:31:55;;;;;;;3.17;1.30;;;;;;;12.40;43.11;100850.50;5050359;28;20280;-61
2023/10/17 12:34:24;;;;;;;4.17;1.60;;;;;;;12.39;42.93;100848.78;5048933;28;20339;-67
2023/10/17 12:36:52;;;;;;;4.07;1.43;;;;;;;12.44;42.63;100846.16;5050244;28;20208;-68
2023/10/17 12:39:21;;;;;;;2.77;1.33;;;;;;;12.47;42.35;100830.66;5048325;28;20208;-67
2023/10/17 12:41:49;;;;;;;3.30;1.20;;;;;;;12.58;42.97;100839.19;5046400;28;20272;-67
2023/10/17 12:44:18;;;;;;;2.53;1.77;;;;;;;12.71;42.77;100834.81;5046968;28;20613;-68
2023/10/17 12:46:46;;;;;;;3.40;1.50;;;;;;;12.87;42.82;100840.69;5053642;28;20202;-67
2023/10/17 12:49:16;;;;;;;5.20;1.60;;;;;;;12.87;41.23;100840.69;5049296;28;20206;-66
2023/10/17 12:51:47;;;;;;;4.23;1.10;;;;;;;12.86;41.40;100828.66;5047967;28;20256;-67
2023/10/17 12:54:15;;;;;;;2.17;0.97;;;;;;;12.73;40.69;100825.28;5051174;28;20602;-66
2023/10/17 12:56:43;;;;;;;4.57;1.57;;;;;;;12.66;41.17;100810.69;5052480;28;20213;-65
2023/10/17 12:59:13;;;;;;;1.87;1.20;;;;;;;12.59;41.16;100815.03;5052814;28;20209;-66
2023/10/17 13:01:41;;;;;;;3.83;1.50;;;;;;;12.50;41.80;100813.41;5050271;28;20644;-60
2023/10/17 13:04:09;;;;;;;3.83;1.40;;;;;;;12.55;41.94;100814.22;5049074;28;20553;-62
2023/10/17 13:06:41;;;;;;;3.27;1.27;;;;;;;12.53;42.55;100821.13;5048904;28;20249;-59
2023/10/17 13:09:11;;;;;;;2.20;1.40;;;;;;;12.43;41.54;100821.19;5045087;28;20667;-62
2023/10/17 13:11:39;;;;;;;2.83;1.17;;;;;;;12.29;40.70;100821.28;5046550;28;20213;-62
2023/10/17 13:14:07;;;;;;;4.37;1.63;;;;;;;12.16;41.29;100822.25;5050058;28;20653;-63
2023/10/17 13:16:35;;;;;;;2.67;1.20;;;;;;;12.13;41.97;100817.09;5044950;28;20212;-65
2023/10/17 13:19:07;;;;;;;3.33;1.10;;;;;;;12.19;42.38;100809.31;5047716;28;20669;-65
2023/10/17 13:21:37;;;;;;;2.97;1.10;;;;;;;12.35;41.94;100804.91;5047208;28;20575;-68
2023/10/17 13:24:09;;;;;;;3.17;1.10;;;;;;;12.46;40.64;100818.59;5049412;28;20190;-70
2023/10/17 13:26:37;;;;;;;1.47;1.20;;;;;;;12.38;40.94;100808.31;5049598;28;20579;-67
2023/10/17 13:29:05;;;;;;;2.57;1.33;;;;;;;12.27;41.99;100802.38;5053762;28;20642;-69